Time;durP1;ratioP1;P1;durP2;ratioP2;P2;SDS_P1;SDS_P2;PMS_P1;PMS_P2;Temp;Humidity;BMP_temperature;BMP_pressure;BME280_temperature;BME280_humidity;BME280_pressure;Samples;Min_cycle;Max_cycle;Signal;HPM_P1;HPM_P2
2022/03/03 00:01:40;;;;;;;;;60.33;45.00;;;;;8.44;52.43;101517.78;5077538;27;45391;-69
2022/03/03 00:04:07;;;;;;;;;55.00;44.33;;;;;8.51;52.49;101535.25;5077959;27;45337;-69
2022/03/03 00:06:33;;;;;;;;;59.67;40.33;;;;;8.46;52.21;101534.38;5077451;27;47572;-69
2022/03/03 00:08:59;;;;;;;;;56.33;43.33;;;;;8.42;52.67;101524.72;5077078;27;45343;-69
2022/03/03 00:11:24;;;;;;;;;60.00;45.00;;;;;8.46;52.17;101539.63;5077496;28;45240;-69
2022/03/03 00:13:50;;;;;;;;;58.00;44.00;;;;;8.44;52.86;101530.00;5077465;27;45546;-69
2022/03/03 00:16:15;;;;;;;;;58.00;44.67;;;;;8.35;53.01;101508.13;5080144;28;46269;-69
2022/03/03 00:18:41;;;;;;;;;52.33;40.33;;;;;8.47;52.67;101530.88;5080930;28;45402;-69
2022/03/03 00:21:06;;;;;;;;;52.67;42.00;;;;;8.46;52.15;101534.38;5080636;27;45447;-69
2022/03/03 00:23:32;;;;;;;;;58.00;45.33;;;;;8.39;51.77;101518.63;5081337;27;45382;-69
2022/03/03 00:25:58;;;;;;;;;54.33;40.00;;;;;8.34;52.49;101508.13;5080807;28;45430;-69
2022/03/03 00:28:24;;;;;;;;;56.33;43.33;;;;;8.41;52.49;101522.09;5080612;27;45367;-69
2022/03/03 00:30:49;;;;;;;;;56.33;44.33;;;;;8.27;52.02;101504.63;5081125;27;45352;-69
2022/03/03 00:33:15;;;;;;;;;58.67;43.67;;;;;8.32;52.00;101530.84;5081099;28;45493;-69
2022/03/03 00:35:40;;;;;;;;;56.00;43.67;;;;;8.25;51.72;101509.00;5080236;28;46306;-69
2022/03/03 00:38:06;;;;;;;;;55.00;43.00;;;;;8.24;51.79;101511.66;5080507;27;45307;-69
2022/03/03 00:40:31;;;;;;;;;58.33;44.33;;;;;8.24;51.89;101517.75;5080401;28;45352;-69
2022/03/03 00:42:57;;;;;;;;;55.33;43.67;;;;;8.11;52.21;101501.16;5081002;28;45357;-69
2022/03/03 00:45:22;;;;;;;;;57.33;44.67;;;;;8.11;52.11;101516.03;5080223;28;47052;-69
2022/03/03 00:47:48;;;;;;;;;59.33;44.67;;;;;8.07;51.69;101509.00;5080245;27;45260;-69
2022/03/03 00:50:15;;;;;;;;;55.33;43.00;;;;;8.08;52.34;101516.88;5080567;27;45381;-69
2022/03/03 00:52:40;;;;;;;;;58.00;44.67;;;;;7.94;52.21;101495.03;5080686;27;45481;-69
2022/03/03 00:55:07;;;;;;;;;57.00;45.33;;;;;7.87;51.95;101498.53;5080101;28;45414;-69
2022/03/03 00:57:32;;;;;;;;;53.33;41.33;;;;;7.89;51.85;101509.91;5080395;28;45307;-69
2022/03/03 00:59:58;;;;;;;;;55.00;43.67;;;;;7.87;52.07;101506.38;5080377;28;45887;-69
2022/03/03 01:02:23;;;;;;;;;53.67;42.00;;;;;7.84;52.20;101508.16;5080560;28;45402;-69
2022/03/03 01:04:48;;;;;;;;;57.00;43.33;;;;;7.82;51.88;101503.75;5079950;28;46564;-69
2022/03/03 01:07:14;;;;;;;;;53.67;41.00;;;;;7.84;52.33;101522.97;5080201;28;45414;-69
2022/03/03 01:09:39;;;;;;;;;58.67;43.67;;;;;7.82;52.39;101512.50;5079929;27;45393;-69
2022/03/03 01:12:05;;;;;;;;;58.67;45.33;;;;;7.67;52.57;101479.28;5080381;28;45405;-69
2022/03/03 01:14:30;;;;;;;;;52.00;41.00;;;;;7.85;52.65;101516.88;5080120;27;45310;-69
2022/03/03 01:16:56;;;;;;;;;51.00;40.67;;;;;7.85;52.10;101514.25;5079803;28;45602;-69
2022/03/03 01:19:21;;;;;;;;;47.67;37.33;;;;;7.72;52.39;101489.75;5080496;28;45269;-69
2022/03/03 01:21:47;;;;;;;;;61.00;43.00;;;;;7.70;53.15;101496.75;5080138;28;45384;-69
2022/03/03 01:24:12;;;;;;;;;62.00;47.00;;;;;7.75;53.30;101512.50;5079588;28;46174;-69
2022/03/03 01:26:38;;;;;;;;;61.00;44.33;;;;;7.63;53.17;101495.88;5079914;27;45262;-69
2022/03/03 01:29:03;;;;;;;;;57.00;42.00;;;;;7.68;53.19;101511.59;5080167;28;45595;-69
2022/03/03 01:31:28;;;;;;;;;56.00;44.00;;;;;7.64;52.98;101509.88;5080427;28;45226;-69
2022/03/03 01:33:54;;;;;;;;;56.33;44.00;;;;;7.56;53.20;101488.88;5079824;28;46284;-69
2022/03/03 01:36:19;;;;;;;;;60.33;44.67;;;;;7.58;53.21;101495.00;5079799;28;45401;-69
2022/03/03 01:38:45;;;;;;;;;60.33;44.67;;;;;7.59;52.96;101496.72;5079652;27;45201;-70
2022/03/03 01:41:10;;;;;;;;;57.67;45.00;;;;;7.65;52.61;101495.88;5080027;28;45415;-69
2022/03/03 01:43:38;;;;;;;;;56.67;44.67;;;;;7.66;52.79;101495.88;5079533;28;45592;-69
2022/03/03 01:46:03;;;;;;;;;60.67;46.67;;;;;7.70;53.11;101494.16;5079618;27;45360;-69
2022/03/03 01:48:29;;;;;;;;;58.67;46.67;;;;;7.76;52.95;101494.16;5079463;27;45491;-69
2022/03/03 01:50:54;;;;;;;;;57.33;43.00;;;;;7.77;52.91;101490.66;5079839;27;45498;-69
2022/03/03 01:53:20;;;;;;;;;56.67;45.67;;;;;7.74;52.85;101479.28;5079652;28;47412;-69
2022/03/03 01:55:45;;;;;;;;;56.67;45.33;;;;;7.67;52.27;101466.19;5079720;27;45383;-69
2022/03/03 01:58:11;;;;;;;;;60.00;46.00;;;;;7.66;52.41;101456.56;5079611;28;45266;-69
2022/03/03 02:00:36;;;;;;;;;58.67;45.33;;;;;7.71;52.78;101456.59;5079966;27;45338;-69
2022/03/03 02:03:01;;;;;;;;;52.67;44.33;;;;;7.69;52.47;101453.06;5079032;27;46470;-69
2022/03/03 02:05:28;;;;;;;;;62.67;47.00;;;;;7.70;52.83;101460.06;5079270;28;45218;-69
2022/03/03 02:07:54;;;;;;;;;59.33;47.00;;;;;7.58;52.19;101434.72;5079711;27;45415;-69
2022/03/03 02:10:19;;;;;;;;;55.00;43.67;;;;;7.71;52.09;101459.22;5079468;28;45502;-69
2022/03/03 02:12:44;;;;;;;;;58.00;44.33;;;;;7.65;52.42;101453.94;5079305;27;46311;-69
2022/03/03 02:15:17;;;;;;;;;57.33;43.67;;;;;7.81;52.44;101470.53;5079243;28;45325;-69
2022/03/03 02:17:43;;;;;;;;;63.33;45.00;;;;;7.75;52.16;101450.44;5078471;28;45206;-69
2022/03/03 02:20:19;;;;;;;;;65.33;49.33;;;;;7.72;52.23;101452.19;5079630;27;45305;-69
2022/03/03 02:22:44;;;;;;;;;63.33;46.00;;;;;7.62;51.86;101438.22;5078503;27;47504;-69
2022/03/03 02:25:10;;;;;;;;;57.33;45.00;;;;;7.79;52.29;101467.06;5078965;27;45326;-69
2022/03/03 02:27:35;;;;;;;;;63.33;45.67;;;;;7.67;51.85;101441.72;5079160;28;45212;-69
2022/03/03 02:30:01;;;;;;;;;54.33;44.00;;;;;7.80;52.23;101466.19;5079557;28;45393;-69
2022/03/03 02:32:26;;;;;;;;;63.00;45.33;;;;;7.71;52.14;101456.59;5078997;28;47222;-69
2022/03/03 02:34:51;;;;;;;;;68.33;48.00;;;;;7.76;52.50;101467.06;5078812;28;45315;-69
2022/03/03 02:37:17;;;;;;;;;60.67;47.00;;;;;7.79;52.11;101472.31;5078211;28;45957;-69
2022/03/03 02:39:44;;;;;;;;;63.67;46.00;;;;;7.75;52.16;101463.56;5079176;28;45306;-70
2022/03/03 02:42:09;;;;;;;;;51.00;40.67;;;;;7.81;52.10;101473.16;5078774;27;46604;-69
2022/03/03 02:44:34;;;;;;;;;63.33;47.33;;;;;7.81;52.22;101455.72;5078498;28;45401;-69
2022/03/03 02:47:00;;;;;;;;;64.67;45.67;;;;;7.89;52.23;101450.47;5078859;27;45374;-69
2022/03/03 02:49:26;;;;;;;;;62.33;50.00;;;;;7.82;52.09;101427.72;5079139;27;45444;-69
2022/03/03 02:51:51;;;;;;;;;62.67;46.00;;;;;7.91;52.06;101434.72;5078221;27;45502;-69
2022/03/03 02:54:17;;;;;;;;;58.67;42.33;;;;;7.91;52.00;101432.09;5078362;27;45453;-69
2022/03/03 02:59:26;;;;;;;;;65.67;48.33;;;;;7.88;51.99;101429.47;5078893;28;45197;-69
2022/03/03 03:01:52;;;;;;;;;61.00;45.00;;;;;7.91;52.35;101440.81;5078346;27;46492;-69
2022/03/03 03:04:17;;;;;;;;;60.00;44.00;;;;;7.66;52.24;101392.78;5078469;28;45304;-69
2022/03/03 03:06:43;;;;;;;;;58.00;41.33;;;;;7.82;52.28;101404.13;5078405;28;45303;-69
2022/03/03 03:09:08;;;;;;;;;62.67;45.00;;;;;7.97;52.02;101422.50;5078406;28;45306;-69
2022/03/03 03:11:34;;;;;;;;;55.00;43.33;;;;;7.99;51.78;101425.09;5078466;27;46376;-69
2022/03/03 03:13:59;;;;;;;;;60.67;46.67;;;;;7.95;51.86;101416.34;5078279;28;45346;-69
2022/03/03 03:16:25;;;;;;;;;57.67;45.33;;;;;7.98;52.09;101420.72;5078372;28;45415;-69
2022/03/03 03:18:50;;;;;;;;;62.67;42.67;;;;;7.87;51.80;101399.78;5078557;27;45277;-69
2022/03/03 03:21:15;;;;;;;;;64.33;47.00;;;;;7.85;51.73;101409.38;5078171;27;46604;-69
2022/03/03 03:23:41;;;;;;;;;59.67;46.00;;;;;7.84;52.26;101412.88;5077957;28;45353;-69
2022/03/03 03:26:06;;;;;;;;;58.67;45.33;;;;;7.81;52.00;101418.13;5078344;28;45406;-69
2022/03/03 03:28:32;;;;;;;;;57.00;46.00;;;;;7.79;52.26;101419.88;5078326;28;45503;-69
2022/03/03 03:30:57;;;;;;;;;59.33;46.00;;;;;7.69;52.56;101408.50;5077961;27;46632;-69
2022/03/03 03:33:22;;;;;;;;;55.33;44.67;;;;;7.70;52.55;101401.50;5078078;27;45303;-69
2022/03/03 03:35:48;;;;;;;;;60.67;46.33;;;;;7.72;52.92;101415.50;5078065;28;45360;-69
2022/03/03 03:38:13;;;;;;;;;60.33;45.33;;;;;7.61;52.70;101403.28;5077704;28;45454;-69
2022/03/03 03:40:39;;;;;;;;;61.00;47.00;;;;;7.72;52.92;101412.88;5076690;28;46519;-69
2022/03/03 03:43:05;;;;;;;;;53.00;45.00;;;;;7.66;53.28;101406.75;5077583;27;45407;-69
2022/03/03 03:45:31;;;;;;;;;54.00;44.33;;;;;7.75;52.76;101413.75;5077834;28;45372;-69
2022/03/03 03:47:57;;;;;;;;;55.33;42.33;;;;;7.62;53.06;101384.06;5078197;27;45414;-69
2022/03/03 03:50:23;;;;;;;;;61.67;47.00;;;;;7.71;52.70;101400.66;5076480;28;45327;-69
2022/03/03 03:52:48;;;;;;;;;63.67;47.33;;;;;7.59;52.89;101385.81;5077310;27;45217;-69
2022/03/03 03:55:14;;;;;;;;;59.33;48.67;;;;;7.65;53.13;101401.50;5077967;27;45873;-69
2022/03/03 03:57:40;;;;;;;;;62.33;47.67;;;;;7.60;52.82;101398.03;5078111;27;45394;-69
2022/03/03 04:00:13;;;;;;;;;59.67;47.33;;;;;7.61;52.99;101402.38;5077647;27;46585;-69
2022/03/03 04:02:40;;;;;;;;;58.67;44.67;;;;;7.60;53.04;101400.66;5077471;27;45249;-69
2022/03/03 04:05:06;;;;;;;;;61.33;47.33;;;;;7.59;53.27;101397.16;5077755;27;45408;-69
2022/03/03 04:07:32;;;;;;;;;57.33;45.00;;;;;7.24;52.83;101339.50;5077507;27;45434;-69
2022/03/03 04:09:57;;;;;;;;;58.67;46.00;;;;;7.49;53.39;101388.44;5077586;28;45587;-69
2022/03/03 04:12:22;;;;;;;;;56.67;43.00;;;;;7.45;53.67;101384.06;5077513;27;45351;-69
2022/03/03 04:14:48;;;;;;;;;57.67;45.33;;;;;7.54;53.52;101403.25;5077502;28;45864;-69
2022/03/03 04:17:13;;;;;;;;;64.33;47.33;;;;;7.49;53.18;101387.53;5077560;28;45474;-69
2022/03/03 04:19:39;;;;;;;;;59.33;47.00;;;;;7.60;53.41;101398.91;5077398;28;46284;-69
2022/03/03 04:22:05;;;;;;;;;56.00;42.67;;;;;7.52;53.26;101376.19;5076868;27;45423;-69
2022/03/03 04:24:30;;;;;;;;;61.00;47.33;;;;;7.57;53.74;101383.19;5076179;28;45421;-69
2022/03/03 04:26:56;;;;;;;;;58.33;44.00;;;;;7.58;53.37;101384.03;5077585;27;45575;-69
2022/03/03 04:29:22;;;;;;;;;58.33;44.67;;;;;7.57;53.84;101383.19;5076835;27;46684;-69
2022/03/03 04:31:49;;;;;;;;;57.00;44.33;;;;;7.45;53.77;101363.09;5077146;27;45254;-69
2022/03/03 04:34:14;;;;;;;;;61.33;46.33;;;;;7.53;54.03;101377.94;5077151;28;45308;-69
2022/03/03 04:36:39;;;;;;;;;60.00;43.67;;;;;7.55;53.79;101382.31;5077093;28;45137;-69
2022/03/03 04:39:05;;;;;;;;;57.67;45.00;;;;;7.43;53.75;101364.81;5077000;27;46615;-69
2022/03/03 04:41:30;;;;;;;;;52.00;43.33;;;;;7.57;53.86;101379.69;5077148;28;45372;-69
2022/03/03 04:43:55;;;;;;;;;60.67;46.00;;;;;7.44;53.99;101357.84;5077314;28;45445;-69
2022/03/03 04:46:21;;;;;;;;;64.33;43.33;;;;;7.41;54.11;101356.09;5077261;28;45524;-69
2022/03/03 04:48:46;;;;;;;;;57.67;46.00;;;;;7.46;54.34;101370.09;5077132;27;45376;-69
2022/03/03 04:51:12;;;;;;;;;60.33;46.00;;;;;7.48;54.02;101370.09;5076978;27;45375;-69
2022/03/03 04:53:37;;;;;;;;;51.33;40.00;;;;;7.45;54.20;101372.69;5076481;27;45387;-69
2022/03/03 04:56:03;;;;;;;;;57.33;44.67;;;;;7.43;54.22;101377.06;5077258;27;45373;-69
2022/03/03 04:58:28;;;;;;;;;54.67;41.67;;;;;7.35;54.60;101353.50;5076767;28;46507;-69
2022/03/03 05:00:54;;;;;;;;;58.33;44.00;;;;;7.40;54.53;101358.72;5077958;27;45444;-69
2022/03/03 05:03:19;;;;;;;;;61.33;48.33;;;;;7.37;54.30;101341.25;5080610;27;45304;-69
2022/03/03 05:05:45;;;;;;;;;54.33;42.00;;;;;7.44;54.40;101358.72;5080617;27;45425;-69
2022/03/03 05:08:11;;;;;;;;;56.00;44.00;;;;;7.46;54.37;101363.97;5078737;28;46674;-69
2022/03/03 05:10:36;;;;;;;;;64.00;46.67;;;;;7.42;54.52;101355.25;5080384;28;45410;-69
2022/03/03 05:13:02;;;;;;;;;60.67;47.00;;;;;7.43;54.41;101359.59;5080452;27;45471;-69
2022/03/03 05:15:28;;;;;;;;;59.00;45.33;;;;;7.37;54.65;101350.88;5080130;28;45410;-69
2022/03/03 05:17:53;;;;;;;;;64.33;47.33;;;;;7.34;54.47;101348.25;5080143;27;46219;-69
2022/03/03 05:20:19;;;;;;;;;59.33;46.33;;;;;7.34;54.55;101345.63;5080043;28;45373;-69
2022/03/03 05:22:44;;;;;;;;;58.33;46.00;;;;;7.25;54.57;101334.28;5079973;28;45280;-69
2022/03/03 05:25:10;;;;;;;;;56.67;44.00;;;;;7.21;54.65;101329.03;5080231;28;45566;-69
2022/03/03 05:27:37;;;;;;;;;65.67;47.00;;;;;7.21;54.93;101343.00;5080035;27;46263;-69
2022/03/03 05:30:03;;;;;;;;;60.67;46.67;;;;;7.17;54.87;101336.00;5079967;28;45385;-69
2022/03/03 05:32:29;;;;;;;;;56.00;46.33;;;;;6.76;54.85;101258.31;5079965;27;45339;-69
2022/03/03 05:34:54;;;;;;;;;61.33;45.00;;;;;7.20;55.09;101346.47;5079628;27;45392;-69
2022/03/03 05:37:22;;;;;;;;;59.00;47.00;;;;;7.24;55.29;101352.59;5079787;27;46696;-69
2022/03/03 05:39:48;;;;;;;;;64.67;47.00;;;;;7.27;55.98;101361.31;5079000;27;45355;-69
2022/03/03 05:42:14;;;;;;;;;56.67;45.67;;;;;7.24;55.63;101349.97;5079983;27;45218;-69
2022/03/03 05:44:39;;;;;;;;;61.67;51.67;;;;;7.25;55.72;101349.13;5079704;27;45300;-69
2022/03/03 05:47:06;;;;;;;;;62.00;45.33;;;;;6.97;56.23;101301.94;5079587;28;46356;-69
2022/03/03 05:49:32;;;;;;;;;59.00;46.00;;;;;6.97;56.30;101289.75;5079716;27;45375;-69
2022/03/03 05:51:58;;;;;;;;;66.00;48.00;;;;;7.22;55.63;101334.28;5079658;27;45285;-69
2022/03/03 05:54:23;;;;;;;;;65.67;46.00;;;;;7.03;56.14;101312.44;5079729;28;45438;-69
2022/03/03 05:56:52;;;;;;;;;59.33;45.67;;;;;7.09;55.59;101328.16;5079632;28;46396;-69
2022/03/03 05:59:22;;;;;;;;;58.00;45.00;;;;;7.15;55.95;101337.75;5079097;27;45296;-69
2022/03/03 06:01:49;;;;;;;;;57.67;45.33;;;;;7.16;55.83;101326.41;5093430;27;45386;-69
2022/03/03 06:04:15;;;;;;;;;61.00;46.00;;;;;7.19;56.29;101338.63;5100385;27;45449;-69
2022/03/03 06:06:54;;;;;;;;;56.67;44.00;;;;;7.15;56.47;101330.75;5079488;27;46725;-69
2022/03/03 06:09:24;;;;;;;;;56.00;45.00;;;;;7.11;56.48;101325.53;5079045;27;45478;-69
2022/03/03 06:12:12;;;;;;;;;59.33;46.00;;;;;7.01;56.21;101315.91;5079895;27;45349;-69
2022/03/03 06:14:46;;;;;;;;;59.00;45.33;;;;;7.21;56.49;101350.84;5016607;28;45494;-69
2022/03/03 06:17:11;;;;;;;;;57.67;41.00;;;;;7.15;56.60;101319.44;5016564;28;47129;-69
2022/03/03 06:19:41;;;;;;;;;61.00;43.67;;;;;7.17;56.25;101341.25;5016699;28;45430;-69
2022/03/03 06:22:11;;;;;;;;;57.67;46.00;;;;;7.22;56.17;101347.38;5014562;28;45570;-69
2022/03/03 06:24:37;;;;;;;;;61.67;48.67;;;;;7.21;56.79;101344.75;5016459;28;45608;-69
2022/03/03 06:27:03;;;;;;;;;65.00;46.67;;;;;7.23;56.59;101346.50;5016378;28;46600;-69
2022/03/03 06:29:28;;;;;;;;;55.00;44.00;;;;;7.24;56.64;101335.13;5016611;28;45421;-69
2022/03/03 06:31:54;;;;;;;;;60.67;45.33;;;;;7.29;55.80;101338.66;5031060;28;45457;-69
2022/03/03 06:34:20;;;;;;;;;57.67;44.00;;;;;7.33;55.57;101347.38;5036697;28;45397;-69
2022/03/03 06:36:46;;;;;;;;;62.67;47.67;;;;;7.24;56.47;101340.38;5029593;28;45726;-69
2022/03/03 06:39:12;;;;;;;;;51.33;40.33;;;;;7.28;55.82;101344.75;5016078;28;45454;-69
2022/03/03 06:41:37;;;;;;;;;63.00;47.67;;;;;7.29;56.19;101356.97;5016616;28;45714;-68
2022/03/03 06:44:02;;;;;;;;;59.33;45.00;;;;;7.35;56.66;101344.75;5016510;28;45453;-68
2022/03/03 06:46:28;;;;;;;;;61.67;45.00;;;;;7.37;56.07;101353.50;5016327;28;45615;-68
2022/03/03 06:48:54;;;;;;;;;56.33;44.33;;;;;7.24;56.23;101332.50;5016253;28;45399;-68
2022/03/03 06:51:22;;;;;;;;;60.67;44.33;;;;;7.39;56.25;101360.47;5036414;28;45343;-68
2022/03/03 06:53:51;;;;;;;;;63.00;46.67;;;;;7.35;56.32;101342.13;5078772;27;45514;-69
2022/03/03 06:56:20;;;;;;;;;58.33;44.33;;;;;7.25;56.50;101334.28;5073990;27;46590;-69
2022/03/03 06:58:46;;;;;;;;;61.00;49.00;;;;;7.44;56.24;101357.84;5077187;27;45362;-69
2022/03/03 07:01:14;;;;;;;;;62.00;49.00;;;;;7.49;56.49;101351.75;5077478;27;45167;-69
2022/03/03 07:03:41;;;;;;;;;64.00;46.00;;;;;7.63;55.43;101361.34;5090195;27;45499;-69
2022/03/03 07:06:06;;;;;;;;;60.00;47.00;;;;;7.69;55.64;101369.19;5078812;27;45664;-68
2022/03/03 07:08:33;;;;;;;;;78.25;59.00;;;;;7.54;56.03;101336.00;5076169;27;45368;-68
2022/03/03 07:10:59;;;;;;;;;54.00;42.33;;;;;7.64;55.69;101357.84;5076552;27;45556;-69
2022/03/03 07:13:24;;;;;;;;;59.00;45.67;;;;;7.72;55.59;101374.44;5076643;27;45452;-69
2022/03/03 07:15:54;;;;;;;;;61.00;46.67;;;;;7.73;55.85;101365.69;5076565;27;45461;-69
2022/03/03 07:18:34;;;;;;;;;62.33;45.67;;;;;7.78;55.55;101373.56;5077013;28;45308;-69
2022/03/03 07:21:10;;;;;;;;;60.33;44.00;;;;;7.83;55.35;101377.06;5074430;28;45512;-69
2022/03/03 07:23:38;;;;;;;;;60.33;47.33;;;;;7.76;55.61;101356.97;5077291;28;45358;-71
2022/03/03 07:26:08;;;;;;;;;56.00;44.00;;;;;7.85;55.16;101367.44;5076264;27;47154;-68
2022/03/03 07:28:38;;;;;;;;;56.00;45.00;;;;;7.88;55.42;101375.28;5066751;28;45826;-67
2022/03/03 07:31:03;;;;;;;;;55.67;45.00;;;;;7.81;55.61;101363.97;5073664;28;45464;-67
2022/03/03 07:33:48;;;;;;;;;59.33;47.33;;;;;7.84;55.90;101368.28;5077431;27;45405;-67
2022/03/03 07:36:18;;;;;;;;;64.00;48.33;;;;;8.02;55.55;101381.38;5076602;27;45630;-67
2022/03/03 07:38:53;;;;;;;;;55.00;44.67;;;;;8.04;55.38;101383.13;5076856;27;45478;-67
2022/03/03 07:41:20;;;;;;;;;58.00;45.00;;;;;8.07;55.94;101376.13;5077360;27;45439;-68
2022/03/03 07:43:46;;;;;;;;;62.00;48.00;;;;;8.12;55.79;101384.88;5077222;28;45371;-67
2022/03/03 07:46:12;;;;;;;;;56.00;45.67;;;;;8.17;55.51;101385.72;5076879;28;45482;-67
2022/03/03 07:48:38;;;;;;;;;62.33;50.00;;;;;8.17;55.57;101383.09;5077027;28;45399;-67
2022/03/03 07:51:04;;;;;;;;;60.67;48.00;;;;;8.24;55.57;101386.56;5077424;27;45437;-68
2022/03/03 07:53:30;;;;;;;;;67.00;50.00;;;;;8.25;55.21;101380.47;5077300;27;45470;-67
2022/03/03 07:56:02;;;;;;;;;60.00;44.00;;;;;8.18;55.09;101371.72;5076922;28;46327;-67
2022/03/03 07:58:31;;;;;;;;;63.00;48.33;;;;;8.26;55.50;101384.81;5076750;27;45372;-67
2022/03/03 08:00:59;;;;;;;;;62.67;47.00;;;;;8.24;55.29;101386.56;5076008;27;45647;-67
2022/03/03 08:03:25;;;;;;;;;63.33;48.00;;;;;8.07;55.73;101356.91;5077250;27;45365;-67
2022/03/03 08:05:57;;;;;;;;;59.00;43.67;;;;;8.16;55.55;101378.75;5076554;27;46694;-67
2022/03/03 08:08:28;;;;;;;;;60.33;44.33;;;;;8.24;55.84;101383.09;5076393;27;45466;-67
2022/03/03 08:11:05;;;;;;;;;59.33;47.33;;;;;8.27;55.51;101375.22;5076499;27;45379;-68
2022/03/03 08:13:32;;;;;;;;;66.00;46.33;;;;;8.35;56.20;101382.19;5074242;28;45343;-67
2022/03/03 08:15:58;;;;;;;;;60.00;46.00;;;;;8.43;55.54;101376.91;5076630;27;46086;-67
2022/03/03 08:18:35;;;;;;;;;58.00;45.00;;;;;8.51;55.15;101379.50;5076673;28;45442;-67
2022/03/03 08:21:02;;;;;;;;;53.67;41.33;;;;;8.58;55.79;101377.75;5076075;27;45375;-67
2022/03/03 08:23:29;;;;;;;;;59.67;45.00;;;;;8.50;55.29;101351.53;5074972;28;45410;-69
2022/03/03 08:25:56;;;;;;;;;61.33;45.67;;;;;8.65;55.88;101375.06;5074197;27;46249;-67
2022/03/03 08:28:25;;;;;;;;;60.33;44.33;;;;;8.73;55.47;101372.44;5068745;28;45403;-67
2022/03/03 08:31:25;;;;;;;;;57.67;43.33;;;;;8.74;54.92;101361.03;5076018;27;45533;-68
2022/03/03 08:33:53;;;;;;;;;55.33;44.00;;;;;10.30;53.46;101372.91;5013037;28;45516;-68
2022/03/03 08:36:34;;;;;;;;;70.67;49.33;;;;;11.54;50.57;101347.47;5015106;28;47111;-68
2022/03/03 08:39:05;;;;;;;;;63.67;48.67;;;;;11.73;50.00;101377.88;5033999;28;45294;-69
2022/03/03 08:41:35;;;;;;;;;62.67;45.00;;;;;11.43;50.09;101381.91;5037407;28;45405;-68
2022/03/03 08:44:03;;;;;;;;;56.67;46.00;;;;;11.15;50.08;101383.22;5037295;28;45475;-68
2022/03/03 08:46:33;;;;;;;;;57.33;46.00;;;;;10.87;50.76;101371.34;5037092;28;47139;-68
2022/03/03 08:49:01;;;;;;;;;56.67;46.33;;;;;10.75;51.06;101375.00;5034797;28;45468;-68
2022/03/03 08:51:27;;;;;;;;;59.00;43.67;;;;;10.82;50.98;101357.34;5036383;28;45446;-68
2022/03/03 08:53:53;;;;;;;;;56.33;42.00;;;;;11.48;50.36;101377.44;5015950;28;45679;-68
2022/03/03 08:56:19;;;;;;;;;55.67;44.67;;;;;12.09;49.73;101367.59;5017092;28;46278;-68
2022/03/03 08:58:45;;;;;;;;;59.00;45.33;;;;;12.67;47.90;101375.25;5016954;28;45706;-69
2022/03/03 09:01:10;;;;;;;;;61.00;46.67;;;;;12.84;47.03;101382.81;5017377;28;45468;-69
2022/03/03 09:03:37;;;;;;;;;63.67;46.67;;;;;13.03;47.27;101365.63;5017468;28;45391;-69
2022/03/03 09:06:02;;;;;;;;;55.67;45.33;;;;;13.01;46.98;101369.19;5016604;28;45556;-69
2022/03/03 09:08:28;;;;;;;;;62.33;49.00;;;;;13.12;46.90;101369.84;5017045;28;45512;-64
2022/03/03 09:10:53;;;;;;;;;55.00;43.33;;;;;13.23;47.13;101373.09;5067342;28;45435;-69
2022/03/03 09:13:18;;;;;;;;;61.00;46.33;;;;;12.95;46.80;101351.72;5079912;28;45371;-70
2022/03/03 09:15:44;;;;;;;;;55.00;44.33;;;;;12.86;46.94;101375.72;5079398;28;46216;-71
2022/03/03 09:18:10;;;;;;;;;61.33;49.33;;;;;12.79;48.07;101369.69;5079016;27;45378;-70
2022/03/03 09:20:36;;;;;;;;;62.00;45.00;;;;;13.02;47.46;101373.59;5079647;28;45404;-69
2022/03/03 09:23:02;;;;;;;;;51.33;39.67;;;;;13.05;48.62;101362.94;5079606;27;45395;-69
2022/03/03 09:25:28;;;;;;;;;59.33;46.33;;;;;13.48;46.67;101361.09;5078520;27;46535;-69
2022/03/03 09:27:54;;;;;;;;;57.00;46.33;;;;;13.62;45.93;101344.84;5078677;27;45426;-69
2022/03/03 09:30:19;;;;;;;;;55.67;45.00;;;;;13.92;45.62;101348.47;5079357;27;45507;-69
2022/03/03 09:32:45;;;;;;;;;57.00;44.33;;;;;14.49;44.61;101352.16;5079839;27;45497;-69
2022/03/03 09:35:11;;;;;;;;;59.67;45.33;;;;;14.85;44.83;101353.78;5079597;27;46340;-69
2022/03/03 09:37:37;;;;;;;;;59.67;45.00;;;;;14.77;43.93;101351.38;5079445;27;45579;-69
2022/03/03 09:40:05;;;;;;;;;60.00;47.33;;;;;14.65;44.29;101341.16;5079802;28;45170;-69
2022/03/03 09:42:33;;;;;;;;;60.00;47.00;;;;;14.76;44.87;101337.25;5079606;27;45236;-68
2022/03/03 09:45:06;;;;;;;;;56.00;44.00;;;;;14.92;44.86;101347.38;5079339;27;45508;-69
2022/03/03 09:47:37;;;;;;;;;60.00;44.67;;;;;14.90;45.21;101354.50;5078235;27;45322;-70
2022/03/03 09:50:03;;;;;;;;;56.33;45.33;;;;;14.92;44.00;101340.28;5079678;27;45240;-69
2022/03/03 09:52:30;;;;;;;;;55.67;45.33;;;;;15.08;44.13;101332.72;5079559;27;45423;-69
2022/03/03 09:54:56;;;;;;;;;62.00;47.00;;;;;15.28;43.80;101340.03;5079119;27;47403;-68
2022/03/03 09:57:22;;;;;;;;;60.33;47.33;;;;;15.36;43.34;101329.16;5078984;27;45367;-68
2022/03/03 09:59:48;;;;;;;;;58.33;45.00;;;;;15.32;43.77;101339.00;5079476;27;45399;-69
2022/03/03 10:02:14;;;;;;;;;50.00;43.00;;;;;15.12;44.21;101312.28;5079621;27;45439;-69
2022/03/03 10:04:40;;;;;;;;;56.00;44.67;;;;;15.24;44.90;101333.09;5078650;27;46509;-69
2022/03/03 10:07:08;;;;;;;;;60.00;45.67;;;;;15.66;44.84;101342.31;5079248;27;45386;-69
2022/03/03 10:09:59;;;;;;;;;56.67;45.33;;;;;15.87;42.38;101339.84;5079262;27;45408;-69
2022/03/03 10:12:23;;;;;;;;;56.67;44.00;;;;;16.16;44.17;101350.31;5079321;28;45270;-69
2022/03/03 10:14:49;;;;;;;;;60.50;48.25;;;;;17.09;41.32;101337.94;5079081;27;46555;-69
2022/03/03 10:17:16;;;;;;;;;62.33;48.00;;;;;18.08;40.13;101331.97;5078894;27;45726;-68
2022/03/03 10:19:56;;;;;;;;;61.00;46.33;;;;;19.21;39.29;101337.41;5070205;28;45536;-68
2022/03/03 10:22:42;;;;;;;;;51.00;41.00;;;;;20.21;37.98;101332.28;5078714;27;45426;-68
2022/03/03 10:25:10;;;;;;;;;57.00;46.33;;;;;20.69;36.63;101329.69;5076409;28;47090;-68
2022/03/03 10:27:35;;;;;;;;;62.33;47.00;;;;;21.10;33.78;101331.84;5078317;27;45518;-68
2022/03/03 10:30:03;;;;;;;;;59.33;46.33;;;;;21.54;34.64;101324.84;5090370;27;45488;-68
2022/03/03 10:32:29;;;;;;;;;57.25;45.25;;;;;21.81;32.51;101333.03;5062529;28;45392;-67
2022/03/03 10:35:01;;;;;;;;;57.67;45.67;;;;;21.78;34.28;101333.22;5077846;28;46548;-68
2022/03/03 10:37:26;;;;;;;;;54.67;45.00;;;;;21.44;34.56;101313.78;5077869;27;45778;-68
2022/03/03 10:39:57;;;;;;;;;50.50;40.00;;;;;21.10;34.16;101339.00;5077699;27;45526;-68
2022/03/03 10:42:25;;;;;;;;;59.75;46.25;;;;;20.34;34.22;101338.69;5077894;27;45494;-67
2022/03/03 10:45:09;;;;;;;;;101.50;69.50;;;;;19.40;35.92;101337.34;5077741;27;47349;-68
2022/03/03 10:47:35;;;;;;;;;63.33;46.33;;;;;18.93;36.49;101320.09;5078010;27;45388;-67
2022/03/03 10:50:01;;;;;;;;;76.25;64.00;;;;;18.62;37.78;101335.72;5078056;27;45450;-68
2022/03/03 10:52:29;;;;;;;;;72.00;53.75;;;;;18.45;38.28;101338.31;5078246;27;45952;-68
2022/03/03 10:55:07;;;;;;;;;64.50;47.25;;;;;18.24;37.92;101346.38;5077720;27;46529;-68
2022/03/03 10:57:35;;;;;;;;;65.50;51.25;;;;;18.06;39.16;101345.38;5077266;27;45512;-68
2022/03/03 11:00:24;;;;;;;;;62.33;47.00;;;;;17.90;38.83;101344.34;5076778;27;45445;-68
2022/03/03 11:02:52;;;;;;;;;62.50;48.00;;;;;17.67;39.76;101345.28;5057122;28;45698;-68
2022/03/03 11:05:20;;;;;;;;;58.67;46.67;;;;;17.53;40.06;101349.41;5057371;28;45459;-68
2022/03/03 11:07:47;;;;;;;;;56.67;46.67;;;;;17.27;40.33;101353.19;5057513;28;45479;-68
2022/03/03 11:10:15;;;;;;;;;58.33;45.67;;;;;16.97;40.82;101352.63;5057366;28;45464;-67
2022/03/03 11:12:43;;;;;;;;;57.67;45.33;;;;;16.62;41.43;101349.50;5057680;28;45396;-68
2022/03/03 11:15:10;;;;;;;;;68.25;52.25;;;;;16.43;42.07;101355.53;5061516;28;45419;-68
2022/03/03 11:17:36;;;;;;;;;57.67;45.67;;;;;16.18;42.43;101358.22;5076834;28;45465;-68